Time;durP1;ratioP1;P1;durP2;ratioP2;P2;SDS_P1;SDS_P2;PMS_P1;PMS_P2;Temp;Humidity;BMP_temperature;BMP_pressure;BME280_temperature;BME280_humidity;BME280_pressure;Samples;Min_cycle;Max_cycle;Signal;HPM_P1;HPM_P2
2023/08/13 00:01:34;;;;;;;3.17;1.55;;;25.70;96.70;;;;;;5064446;28;20723;-77
2023/08/13 00:04:02;;;;;;;2.25;1.42;;;25.60;96.70;;;;;;5065076;28;20048;-76
2023/08/13 00:06:30;;;;;;;2.20;1.65;;;25.60;96.70;;;;;;5066358;28;20126;-75
2023/08/13 00:08:58;;;;;;;1.58;1.40;;;25.60;96.70;;;;;;5064793;28;20120;-75
2023/08/13 00:11:26;;;;;;;3.35;1.50;;;25.50;96.70;;;;;;5066108;28;20596;-76
2023/08/13 00:13:56;;;;;;;4.70;1.42;;;25.60;96.70;;;;;;5064773;28;20091;-75
2023/08/13 00:16:24;;;;;;;3.65;1.70;;;25.50;96.70;;;;;;5065949;28;20075;-76
2023/08/13 00:18:52;;;;;;;3.80;1.58;;;25.50;96.70;;;;;;5064966;28;20052;-75
2023/08/13 00:21:20;;;;;;;1.90;1.23;;;25.60;96.70;;;;;;5065901;28;20388;-75
2023/08/13 00:23:50;;;;;;;4.88;1.50;;;25.60;96.70;;;;;;5066453;28;20116;-75
2023/08/13 00:26:18;;;;;;;3.13;1.50;;;25.40;96.70;;;;;;5066151;28;20043;-76
2023/08/13 00:28:46;;;;;;;2.05;1.70;;;25.40;96.70;;;;;;5065902;28;20570;-76
2023/08/13 00:31:15;;;;;;;1.92;1.50;;;25.40;96.70;;;;;;5058261;28;20062;-75
2023/08/13 00:33:43;;;;;;;3.25;1.58;;;25.30;96.70;;;;;;5064422;28;20102;-75
2023/08/13 00:36:11;;;;;;;3.35;1.50;;;25.30;96.70;;;;;;5064165;28;20135;-76
2023/08/13 00:38:39;;;;;;;3.55;1.50;;;25.30;96.70;;;;;;5064405;28;20056;-75
2023/08/13 00:41:08;;;;;;;1.70;1.40;;;25.30;96.70;;;;;;5066187;28;20498;-75
2023/08/13 00:43:37;;;;;;;3.58;1.58;;;25.30;96.70;;;;;;5080382;28;20052;-75
2023/08/13 00:46:05;;;;;;;2.92;1.70;;;25.30;96.70;;;;;;5065368;28;20634;-75
2023/08/13 00:48:38;;;;;;;3.10;1.40;;;25.20;96.70;;;;;;5063524;28;20056;-76
2023/08/13 00:51:08;;;;;;;2.75;1.45;;;25.20;96.70;;;;;;5049637;28;20075;-75
2023/08/13 00:53:45;;;;;;;3.17;1.38;;;25.00;96.70;;;;;;5064445;28;20441;-75
2023/08/13 00:56:14;;;;;;;1.73;1.63;;;25.10;96.70;;;;;;5064062;28;20603;-75
2023/08/13 00:58:43;;;;;;;2.55;1.60;;;25.10;96.70;;;;;;5065476;28;20169;-75
2023/08/13 01:01:12;;;;;;;2.08;1.50;;;25.20;96.70;;;;;;5064998;28;20037;-75
2023/08/13 01:03:41;;;;;;;2.72;1.55;;;25.20;96.70;;;;;;5064067;28;20036;-76
2023/08/13 01:06:15;;;;;;;4.05;1.50;;;25.10;96.70;;;;;;5063386;28;20147;-75
2023/08/13 01:08:51;;;;;;;1.98;1.77;;;25.00;96.70;;;;;;5072918;28;20074;-75
2023/08/13 01:11:27;;;;;;;3.75;2.03;;;25.00;96.70;;;;;;5065719;28;20040;-75
2023/08/13 01:14:03;;;;;;;2.00;1.48;;;25.00;96.70;;;;;;5063753;28;20052;-75
2023/08/13 01:16:32;;;;;;;3.67;1.60;;;25.00;96.70;;;;;;5047217;28;20086;-75
2023/08/13 01:19:04;;;;;;;2.17;1.40;;;25.00;96.70;;;;;;5047690;28;20241;-75
2023/08/13 01:21:32;;;;;;;2.08;1.88;;;25.00;96.70;;;;;;5047026;28;20052;-75
2023/08/13 01:24:01;;;;;;;5.45;1.67;;;25.00;96.70;;;;;;5065715;28;20039;-76
2023/08/13 01:26:37;;;;;;;2.92;2.25;;;24.90;96.70;;;;;;5065066;28;20148;-75
2023/08/13 01:29:10;;;;;;;3.60;1.85;;;25.00;96.70;;;;;;5063220;28;20052;-75
2023/08/13 01:31:41;;;;;;;4.65;1.80;;;25.00;96.70;;;;;;5055421;28;20141;-77
2023/08/13 01:34:10;;;;;;;3.10;1.70;;;24.90;96.70;;;;;;5046758;28;20102;-75
2023/08/13 01:36:39;;;;;;;2.72;1.52;;;24.90;96.70;;;;;;5046984;28;20048;-75
2023/08/13 01:39:08;;;;;;;2.70;1.65;;;24.90;96.70;;;;;;5064103;28;20055;-75
2023/08/13 01:41:52;;;;;;;3.45;1.73;;;24.80;96.70;;;;;;5078993;28;20072;-75
2023/08/13 01:44:20;;;;;;;3.30;1.58;;;24.80;96.70;;;;;;5059657;28;20048;-75
2023/08/13 01:46:49;;;;;;;2.83;1.70;;;24.70;96.70;;;;;;5062556;28;20036;-75
2023/08/13 01:49:19;;;;;;;2.72;1.73;;;24.60;96.70;;;;;;5064546;28;20041;-75
2023/08/13 01:51:47;;;;;;;2.72;1.80;;;24.60;96.70;;;;;;5064108;28;20041;-76
2023/08/13 01:54:16;;;;;;;2.35;1.70;;;24.70;96.70;;;;;;5064192;28;20036;-75
2023/08/13 01:56:44;;;;;;;4.80;1.88;;;24.60;96.70;;;;;;5062662;28;20124;-75
2023/08/13 01:59:12;;;;;;;1.98;1.35;;;24.50;96.70;;;;;;5061630;28;20044;-75
2023/08/13 02:01:41;;;;;;;2.85;1.63;;;24.60;96.70;;;;;;5069668;28;20048;-75
2023/08/13 02:04:09;;;;;;;1.70;1.40;;;24.50;96.70;;;;;;5062649;28;20101;-75
2023/08/13 02:06:37;;;;;;;2.28;1.85;;;24.50;96.70;;;;;;5045531;28;20057;-76
2023/08/13 02:09:05;;;;;;;1.70;1.50;;;24.30;96.70;;;;;;5064356;28;20140;-76
2023/08/13 02:11:35;;;;;;;2.05;1.67;;;24.30;96.70;;;;;;5062799;28;20048;-76
2023/08/13 02:14:03;;;;;;;2.05;1.65;;;24.30;96.70;;;;;;5062751;28;20040;-75
2023/08/13 02:16:31;;;;;;;2.63;1.70;;;24.30;96.70;;;;;;5046214;28;20048;-75
2023/08/13 02:18:59;;;;;;;1.80;1.50;;;24.40;96.70;;;;;;5045275;28;20049;-75
2023/08/13 02:21:27;;;;;;;2.83;1.50;;;24.30;96.70;;;;;;5064044;28;20131;-75
2023/08/13 02:23:55;;;;;;;1.67;1.33;;;24.30;96.70;;;;;;5062840;28;20567;-75
2023/08/13 02:26:23;;;;;;;2.03;1.70;;;24.30;96.70;;;;;;5042749;28;20049;-75
2023/08/13 02:28:52;;;;;;;2.22;1.80;;;24.30;96.70;;;;;;5061742;28;20148;-75
2023/08/13 02:31:20;;;;;;;2.20;1.60;;;24.20;96.70;;;;;;5061845;28;20074;-75
2023/08/13 02:33:48;;;;;;;3.50;1.95;;;24.20;96.70;;;;;;5042491;28;20426;-75
2023/08/13 02:36:16;;;;;;;2.33;1.60;;;24.20;96.70;;;;;;5062130;28;20114;-74
2023/08/13 02:38:46;;;;;;;3.83;1.50;;;24.20;96.70;;;;;;5059831;28;20036;-75
2023/08/13 02:41:32;;;;;;;2.22;1.50;;;24.10;96.70;;;;;;5074722;28;20131;-75
2023/08/13 02:44:03;;;;;;;2.55;1.70;;;24.10;96.70;;;;;;5061101;28;20056;-75
2023/08/13 02:46:34;;;;;;;4.03;1.70;;;24.10;96.70;;;;;;5061956;28;20083;-74
2023/08/13 02:49:03;;;;;;;2.72;1.55;;;24.00;96.70;;;;;;5064037;28;20049;-74
2023/08/13 02:51:32;;;;;;;2.63;1.80;;;23.90;96.70;;;;;;5063097;28;20060;-75
2023/08/13 02:54:01;;;;;;;2.50;1.77;;;23.90;96.70;;;;;;5063304;28;20036;-75
2023/08/13 02:56:30;;;;;;;2.80;1.38;;;23.80;96.70;;;;;;5061662;28;20064;-75
2023/08/13 02:58:59;;;;;;;3.55;1.42;;;23.80;96.70;;;;;;5063022;28;20056;-75
2023/08/13 03:01:30;;;;;;;2.35;1.70;;;23.90;96.70;;;;;;5063353;28;20033;-75
2023/08/13 03:04:03;;;;;;;1.95;1.30;;;23.90;96.70;;;;;;5061789;28;20125;-75
2023/08/13 03:06:32;;;;;;;1.60;1.50;;;23.90;96.70;;;;;;5061686;28;20048;-75
2023/08/13 03:09:01;;;;;;;2.55;1.60;;;23.90;96.70;;;;;;5062936;28;20123;-75
2023/08/13 03:11:30;;;;;;;1.80;1.60;;;23.80;96.70;;;;;;5044149;28;20084;-75
2023/08/13 03:13:59;;;;;;;3.80;1.52;;;23.70;96.70;;;;;;5061125;28;20406;-75
2023/08/13 03:16:30;;;;;;;2.95;1.80;;;23.70;96.70;;;;;;5061790;28;20048;-75
2023/08/13 03:18:59;;;;;;;1.95;1.52;;;23.70;96.70;;;;;;5063845;28;20037;-75
2023/08/13 03:21:28;;;;;;;2.50;1.80;;;23.70;96.70;;;;;;5061293;28;20044;-75
2023/08/13 03:23:57;;;;;;;2.55;1.33;;;23.60;96.70;;;;;;5061598;28;20083;-75
2023/08/13 03:26:27;;;;;;;1.67;1.40;;;23.70;96.70;;;;;;5061876;28;20068;-75
2023/08/13 03:28:57;;;;;;;3.03;1.27;;;23.70;96.70;;;;;;5061088;28;20051;-75
2023/08/13 03:31:26;;;;;;;2.25;1.50;;;23.60;96.70;;;;;;5062912;28;20087;-75
2023/08/13 03:34:02;;;;;;;2.70;1.38;;;23.70;96.70;;;;;;5060936;28;20068;-75
2023/08/13 03:36:31;;;;;;;1.92;1.40;;;23.60;96.70;;;;;;5059791;28;20173;-75
2023/08/13 03:39:00;;;;;;;1.58;1.20;;;23.50;96.70;;;;;;5041367;28;20049;-76
2023/08/13 03:41:29;;;;;;;2.88;1.45;;;23.40;96.70;;;;;;5047933;28;20049;-75
2023/08/13 03:43:58;;;;;;;2.33;1.70;;;23.30;96.70;;;;;;5060624;28;20036;-75
2023/08/13 03:46:28;;;;;;;2.92;1.55;;;23.20;96.70;;;;;;5061140;28;20052;-75
2023/08/13 03:48:58;;;;;;;2.40;1.60;;;23.20;96.70;;;;;;5049820;28;20479;-75
2023/08/13 03:51:29;;;;;;;2.20;1.60;;;23.20;96.70;;;;;;5062609;28;20502;-75
2023/08/13 03:53:58;;;;;;;4.30;1.52;;;23.20;96.70;;;;;;5061737;28;20075;-76
2023/08/13 03:56:32;;;;;;;3.08;1.50;;;23.40;96.70;;;;;;5060595;28;20072;-76
2023/08/13 03:59:04;;;;;;;2.45;1.25;;;23.50;96.70;;;;;;5060617;28;20041;-75
2023/08/13 04:01:35;;;;;;;1.88;1.50;;;23.60;96.70;;;;;;5044826;28;20078;-75
2023/08/13 04:04:04;;;;;;;1.58;1.23;;;23.60;96.70;;;;;;5061677;28;20041;-76
2023/08/13 04:06:36;;;;;;;1.85;1.30;;;23.60;96.70;;;;;;5061335;28;20491;-75
2023/08/13 04:09:06;;;;;;;1.85;1.20;;;23.60;96.70;;;;;;5061086;28;20179;-75
2023/08/13 04:11:36;;;;;;;3.88;1.40;;;23.40;96.70;;;;;;5060899;28;20041;-75
2023/08/13 04:14:05;;;;;;;1.77;1.60;;;23.30;96.70;;;;;;5062074;28;20060;-75
2023/08/13 04:16:35;;;;;;;2.78;1.58;;;23.40;96.70;;;;;;5043903;28;20579;-75
2023/08/13 04:19:04;;;;;;;2.28;1.65;;;23.50;96.70;;;;;;5060956;28;20506;-75
2023/08/13 04:21:35;;;;;;;2.35;1.45;;;23.40;96.70;;;;;;5060766;28;20106;-75
2023/08/13 04:24:05;;;;;;;1.52;1.40;;;23.30;96.70;;;;;;5064370;28;20052;-75
2023/08/13 04:26:35;;;;;;;3.22;1.38;;;23.30;96.70;;;;;;5064859;28;20466;-75
2023/08/13 04:29:07;;;;;;;1.25;1.08;;;23.30;96.70;;;;;;5063943;28;20135;-75
2023/08/13 04:31:39;;;;;;;2.20;1.50;;;23.20;96.70;;;;;;5047913;28;20048;-74
2023/08/13 04:34:09;;;;;;;2.38;1.42;;;23.10;96.70;;;;;;5064720;28;20075;-75
2023/08/13 04:36:40;;;;;;;1.75;1.35;;;23.00;96.70;;;;;;5047998;28;20044;-75
2023/08/13 04:39:12;;;;;;;3.45;1.92;;;23.10;96.70;;;;;;5064270;28;20082;-75
2023/08/13 04:41:43;;;;;;;2.35;1.70;;;23.00;96.70;;;;;;5064468;28;20049;-76
2023/08/13 04:44:13;;;;;;;2.53;1.70;;;23.00;96.70;;;;;;5063553;28;20044;-75
2023/08/13 04:46:43;;;;;;;2.78;1.48;;;23.10;96.70;;;;;;5063950;28;20060;-75
2023/08/13 04:49:12;;;;;;;3.72;1.70;;;23.00;96.70;;;;;;5064522;28;20040;-75
2023/08/13 04:51:43;;;;;;;2.75;1.58;;;23.00;96.70;;;;;;5064239;28;20522;-74
2023/08/13 04:54:13;;;;;;;2.20;1.63;;;22.90;96.70;;;;;;5064565;28;20052;-75
2023/08/13 04:56:42;;;;;;;2.20;1.48;;;23.00;96.70;;;;;;5065215;28;20047;-75
2023/08/13 04:59:12;;;;;;;4.10;1.48;;;23.10;96.70;;;;;;5063135;28;20060;-75
2023/08/13 05:01:43;;;;;;;2.17;1.77;;;23.10;96.70;;;;;;5064128;28;20067;-75
2023/08/13 05:04:12;;;;;;;1.88;1.40;;;23.10;96.70;;;;;;5063878;28;20133;-75
2023/08/13 05:06:43;;;;;;;1.80;1.33;;;23.20;96.70;;;;;;5064039;28;20091;-75
2023/08/13 05:09:14;;;;;;;2.92;1.85;;;23.10;96.70;;;;;;5063381;28;20102;-75
2023/08/13 05:11:44;;;;;;;2.53;1.58;;;23.00;96.70;;;;;;5063737;28;20399;-75
2023/08/13 05:14:14;;;;;;;2.58;1.80;;;23.00;96.70;;;;;;5043930;28;20052;-75
2023/08/13 05:16:44;;;;;;;2.25;1.85;;;23.00;96.70;;;;;;5043877;28;20076;-75
2023/08/13 05:19:13;;;;;;;2.85;1.70;;;23.10;96.70;;;;;;5063078;28;20071;-76
2023/08/13 05:21:44;;;;;;;2.50;1.75;;;23.10;96.70;;;;;;5064394;28;20044;-76
2023/08/13 05:24:13;;;;;;;2.83;1.50;;;23.30;96.70;;;;;;5046986;28;20044;-76
2023/08/13 05:26:43;;;;;;;2.15;1.70;;;23.30;96.70;;;;;;5047363;28;20541;-76
2023/08/13 05:29:17;;;;;;;3.10;1.75;;;23.20;96.70;;;;;;5057075;28;20615;-76
2023/08/13 05:31:46;;;;;;;1.83;1.40;;;23.30;96.70;;;;;;5062222;28;20577;-76
2023/08/13 05:34:15;;;;;;;2.70;1.65;;;23.30;96.70;;;;;;5062027;28;20053;-76
2023/08/13 05:36:46;;;;;;;1.58;1.45;;;23.40;96.70;;;;;;5046939;28;20516;-76
2023/08/13 05:39:16;;;;;;;2.15;1.63;;;23.40;96.70;;;;;;5063365;28;20051;-75
2023/08/13 05:41:45;;;;;;;2.17;1.40;;;23.40;96.70;;;;;;5065385;28;20409;-76
2023/08/13 05:44:15;;;;;;;2.10;1.35;;;23.40;96.70;;;;;;5045557;28;20055;-76
2023/08/13 05:46:46;;;;;;;2.80;1.63;;;23.50;96.70;;;;;;5065869;28;21473;-76
2023/08/13 05:49:16;;;;;;;2.60;1.60;;;23.60;96.70;;;;;;5062681;28;20044;-76
2023/08/13 05:51:49;;;;;;;1.67;1.35;;;23.60;96.70;;;;;;5062935;28;20056;-75
2023/08/13 05:54:19;;;;;;;3.13;1.50;;;23.70;96.70;;;;;;5064398;28;20052;-76
2023/08/13 05:56:48;;;;;;;2.50;1.75;;;23.70;96.70;;;;;;5064393;28;20087;-76
2023/08/13 05:59:18;;;;;;;2.15;1.55;;;23.70;96.70;;;;;;5062572;28;20053;-76
2023/08/13 06:01:47;;;;;;;3.58;2.03;;;23.70;96.70;;;;;;5062676;28;20045;-76
2023/08/13 06:04:16;;;;;;;3.25;1.63;;;23.80;96.70;;;;;;5062634;28;20082;-76
2023/08/13 06:06:48;;;;;;;2.83;1.75;;;23.80;96.70;;;;;;5063293;28;20075;-75
2023/08/13 06:09:18;;;;;;;3.40;1.90;;;23.90;96.70;;;;;;5064240;28;20053;-76
2023/08/13 06:11:48;;;;;;;3.05;1.75;;;23.90;96.70;;;;;;5064211;28;20540;-76
2023/08/13 06:14:18;;;;;;;3.67;1.95;;;23.90;96.70;;;;;;5063367;28;20070;-76
2023/08/13 06:16:47;;;;;;;3.72;1.55;;;24.00;96.70;;;;;;5062726;28;20048;-75
2023/08/13 06:19:25;;;;;;;2.25;1.73;;;24.00;96.70;;;;;;5063262;28;20510;-76
2023/08/13 06:21:56;;;;;;;2.63;1.85;;;24.10;96.70;;;;;;5062438;28;20055;-76
2023/08/13 06:24:25;;;;;;;2.67;1.80;;;24.20;96.70;;;;;;5059740;28;20575;-76
2023/08/13 06:26:54;;;;;;;3.05;2.00;;;24.20;96.70;;;;;;5063853;28;20045;-75
2023/08/13 06:29:23;;;;;;;2.33;1.45;;;24.30;96.70;;;;;;5045615;28;20051;-75
2023/08/13 06:31:53;;;;;;;2.90;2.35;;;24.30;96.70;;;;;;5063065;28;20082;-76
2023/08/13 06:34:22;;;;;;;3.78;1.90;;;24.30;96.70;;;;;;5063687;28;20159;-76
2023/08/13 06:36:51;;;;;;;5.20;1.92;;;24.30;96.70;;;;;;5063466;28;20590;-76
2023/08/13 06:39:22;;;;;;;3.88;2.10;;;24.30;96.70;;;;;;5061944;28;20082;-76
2023/08/13 06:41:51;;;;;;;3.53;2.13;;;24.30;96.70;;;;;;5062206;28;20048;-76
2023/08/13 06:44:27;;;;;;;5.18;2.00;;;24.30;96.70;;;;;;5045677;28;20537;-75
2023/08/13 06:46:56;;;;;;;3.15;1.90;;;24.40;96.70;;;;;;5063547;28;20040;-76
2023/08/13 06:49:25;;;;;;;5.05;1.80;;;24.40;96.70;;;;;;5061657;28;20044;-76
2023/08/13 06:51:54;;;;;;;3.65;1.83;;;24.40;96.70;;;;;;5062193;28;20062;-76
2023/08/13 06:54:27;;;;;;;4.88;1.95;;;24.60;96.70;;;;;;5063215;28;20036;-76
2023/08/13 06:56:59;;;;;;;5.50;2.20;;;24.60;96.70;;;;;;5070639;28;20040;-76
2023/08/13 06:59:28;;;;;;;2.97;1.90;;;24.60;96.70;;;;;;5061711;28;20040;-75
2023/08/13 07:01:57;;;;;;;4.43;1.80;;;24.80;96.70;;;;;;5063167;28;20048;-76
2023/08/13 07:04:26;;;;;;;5.40;1.92;;;24.90;96.70;;;;;;5063237;28;20050;-76
2023/08/13 07:06:56;;;;;;;3.40;1.60;;;25.00;96.70;;;;;;5060792;28;20608;-76
2023/08/13 07:09:27;;;;;;;2.60;2.20;;;25.00;96.70;;;;;;5061077;28;20055;-76
2023/08/13 07:11:56;;;;;;;3.35;1.98;;;25.00;96.70;;;;;;5063545;28;20182;-76
2023/08/13 07:14:24;;;;;;;2.80;2.03;;;25.00;96.70;;;;;;5061216;28;20064;-75
2023/08/13 07:16:52;;;;;;;4.43;2.08;;;25.10;96.70;;;;;;5062656;28;20555;-76
2023/08/13 07:19:21;;;;;;;5.32;1.90;;;25.20;96.70;;;;;;5062456;28;20041;-76
2023/08/13 07:21:49;;;;;;;5.68;1.85;;;25.20;96.70;;;;;;5055448;28;20061;-76
2023/08/13 07:24:18;;;;;;;2.00;1.75;;;25.30;96.70;;;;;;5062976;28;20059;-76
2023/08/13 07:26:48;;;;;;;3.67;1.80;;;25.30;96.70;;;;;;5041695;28;20052;-75
2023/08/13 07:29:17;;;;;;;3.35;2.00;;;25.40;96.70;;;;;;5059183;28;20049;-76
2023/08/13 07:31:45;;;;;;;2.38;1.88;;;25.50;96.70;;;;;;5062921;28;20064;-76
2023/08/13 07:34:14;;;;;;;3.58;2.00;;;25.50;96.70;;;;;;5060846;28;20072;-75
2023/08/13 07:36:42;;;;;;;2.75;1.70;;;25.60;96.70;;;;;;5060878;28;20048;-76
2023/08/13 07:39:11;;;;;;;3.20;2.03;;;25.60;96.70;;;;;;5063005;28;20123;-76
2023/08/13 07:41:39;;;;;;;2.22;1.80;;;25.70;96.70;;;;;;5062926;28;20048;-76
2023/08/13 07:44:09;;;;;;;4.78;2.45;;;25.70;96.70;;;;;;5060872;28;20058;-76
2023/08/13 07:46:38;;;;;;;3.13;1.90;;;25.80;96.70;;;;;;5060430;28;20451;-75
2023/08/13 07:49:06;;;;;;;2.45;1.80;;;25.90;96.70;;;;;;5035456;28;20045;-75
2023/08/13 07:51:35;;;;;;;3.85;1.80;;;26.00;96.70;;;;;;5063141;28;20119;-76
2023/08/13 07:54:03;;;;;;;2.75;1.70;;;26.00;96.70;;;;;;5061488;28;20051;-76
2023/08/13 07:56:32;;;;;;;2.65;1.60;;;26.10;96.70;;;;;;5044974;28;20144;-76
2023/08/13 07:59:04;;;;;;;2.85;2.25;;;26.20;96.70;;;;;;5064378;28;20135;-76
2023/08/13 08:01:34;;;;;;;2.22;1.60;;;26.20;96.70;;;;;;5016094;28;20068;-76
2023/08/13 08:04:03;;;;;;;3.70;1.60;;;26.30;96.70;;;;;;5067190;28;20067;-75
2023/08/13 08:06:32;;;;;;;3.05;2.08;;;26.40;96.70;;;;;;5065457;28;20379;-76
2023/08/13 08:09:00;;;;;;;3.40;2.05;;;26.50;96.70;;;;;;5048855;28;20048;-76
2023/08/13 08:11:28;;;;;;;2.55;1.83;;;26.50;96.70;;;;;;5065045;28;20072;-75
2023/08/13 08:13:56;;;;;;;3.47;2.15;;;26.50;96.70;;;;;;5065285;28;20140;-76
2023/08/13 08:16:25;;;;;;;2.88;2.10;;;26.50;96.70;;;;;;5064916;28;20043;-76
2023/08/13 08:18:54;;;;;;;2.65;1.80;;;26.60;96.70;;;;;;5065073;28;20048;-76
2023/08/13 08:21:23;;;;;;;2.53;1.73;;;26.60;96.70;;;;;;5064608;28;20049;-76
2023/08/13 08:23:51;;;;;;;2.22;2.03;;;26.80;96.70;;;;;;5064702;28;20150;-76
2023/08/13 08:26:19;;;;;;;4.60;1.92;;;26.90;96.70;;;;;;5066151;28;20041;-76
2023/08/13 08:28:47;;;;;;;5.45;1.90;;;27.00;96.70;;;;;;5065260;28;20040;-76
2023/08/13 08:31:16;;;;;;;2.05;1.70;;;27.10;96.70;;;;;;5064548;28;20131;-76
2023/08/13 08:33:44;;;;;;;2.97;1.70;;;27.20;96.70;;;;;;5064622;28;20063;-76
2023/08/13 08:36:14;;;;;;;4.38;1.80;;;27.20;96.70;;;;;;5064706;28;20044;-76
2023/08/13 08:38:42;;;;;;;5.15;1.70;;;27.30;96.70;;;;;;5065785;28;20462;-76
2023/08/13 08:41:12;;;;;;;2.92;1.60;;;27.40;96.70;;;;;;5065333;28;20049;-76
2023/08/13 08:43:41;;;;;;;2.22;1.70;;;27.50;96.70;;;;;;5056014;28;20047;-76
2023/08/13 08:46:11;;;;;;;2.17;1.75;;;27.50;96.70;;;;;;5064524;28;20048;-76
2023/08/13 08:48:40;;;;;;;2.80;1.60;;;27.50;96.70;;;;;;5066060;28;20127;-76
2023/08/13 08:51:09;;;;;;;2.20;1.67;;;27.60;96.70;;;;;;5063679;28;20048;-76
2023/08/13 08:53:41;;;;;;;2.72;1.80;;;27.80;96.70;;;;;;5047689;28;20634;-76
2023/08/13 08:56:09;;;;;;;2.90;1.92;;;27.90;96.70;;;;;;5079258;28;20159;-76
2023/08/13 08:58:37;;;;;;;3.58;1.98;;;28.00;96.70;;;;;;5047712;28;20731;-76
2023/08/13 09:01:05;;;;;;;2.33;1.63;;;28.10;96.70;;;;;;5065789;28;20607;-76
2023/08/13 09:03:34;;;;;;;2.05;1.63;;;28.20;96.70;;;;;;5063832;28;20122;-76
2023/08/13 09:06:02;;;;;;;3.55;1.70;;;28.30;96.70;;;;;;5064264;28;20051;-76
2023/08/13 09:08:48;;;;;;;3.70;1.70;;;28.50;96.70;;;;;;5077146;28;20048;-76
2023/08/13 09:11:18;;;;;;;3.60;1.50;;;28.40;96.70;;;;;;5064416;28;20084;-76
2023/08/13 09:13:50;;;;;;;2.88;1.77;;;28.50;96.70;;;;;;5060343;28;20048;-76
2023/08/13 09:16:19;;;;;;;3.22;1.75;;;28.70;96.70;;;;;;5063588;28;20052;-77
2023/08/13 09:18:52;;;;;;;1.70;1.60;;;28.60;96.70;;;;;;5055688;28;20052;-76
2023/08/13 09:21:35;;;;;;;3.53;1.38;;;28.70;96.70;;;;;;5064143;28;20579;-76
2023/08/13 09:24:06;;;;;;;3.45;1.92;;;28.90;96.70;;;;;;5063869;28;20143;-76
2023/08/13 09:26:36;;;;;;;3.67;1.75;;;29.10;96.70;;;;;;5065018;28;20051;-76
2023/08/13 09:29:09;;;;;;;2.15;1.65;;;29.20;96.70;;;;;;5064995;28;20044;-77
2023/08/13 09:31:39;;;;;;;3.15;1.90;;;29.20;96.70;;;;;;5063857;28;20055;-76
2023/08/13 09:34:07;;;;;;;2.85;1.90;;;29.30;96.70;;;;;;5064743;28;20640;-76
2023/08/13 09:36:35;;;;;;;4.32;2.40;;;29.50;96.70;;;;;;5065225;28;20048;-76
2023/08/13 09:39:07;;;;;;;4.90;2.55;;;29.70;96.70;;;;;;5063451;28;20098;-76
2023/08/13 09:41:36;;;;;;;5.28;1.98;;;29.70;96.70;;;;;;5063693;28;20086;-76
2023/08/13 09:44:08;;;;;;;4.65;2.15;;;29.80;96.70;;;;;;5063917;28;20247;-76
2023/08/13 09:46:39;;;;;;;1.92;1.60;;;29.90;96.70;;;;;;5061344;28;20575;-76
2023/08/13 09:49:11;;;;;;;3.30;2.00;;;30.00;96.70;;;;;;5062351;28;20040;-76
2023/08/13 09:51:43;;;;;;;3.45;1.98;;;30.10;96.70;;;;;;5056347;28;20040;-76
2023/08/13 09:54:20;;;;;;;4.47;2.30;;;30.20;96.70;;;;;;5062983;28;20040;-76
2023/08/13 09:56:55;;;;;;;2.50;2.00;;;30.30;96.70;;;;;;5064127;28;20127;-76
2023/08/13 09:59:23;;;;;;;4.68;1.80;;;30.30;96.70;;;;;;5063761;28;20036;-76
2023/08/13 10:01:52;;;;;;;3.83;2.35;;;30.40;96.70;;;;;;5056419;28;20041;-77
2023/08/13 10:04:22;;;;;;;2.78;1.88;;;30.60;96.70;;;;;;5062960;28;20044;-76
2023/08/13 10:06:51;;;;;;;2.72;2.20;;;30.80;96.70;;;;;;5064546;28;20071;-76
2023/08/13 10:09:21;;;;;;;4.20;1.90;;;30.90;96.70;;;;;;5057546;28;20045;-76
2023/08/13 10:11:50;;;;;;;3.63;2.10;;;31.10;96.70;;;;;;5078979;28;20059;-76
2023/08/13 10:14:19;;;;;;;2.83;1.90;;;31.00;96.70;;;;;;5062247;28;20092;-76
2023/08/13 10:16:47;;;;;;;2.13;1.90;;;31.00;96.70;;;;;;5046281;28;20125;-76
2023/08/13 10:19:17;;;;;;;2.63;1.90;;;31.10;96.70;;;;;;5062197;28;20051;-76
2023/08/13 10:21:55;;;;;;;4.78;2.25;;;31.40;96.70;;;;;;5062033;28;20056;-76
2023/08/13 10:24:29;;;;;;;2.83;2.30;;;31.40;96.70;;;;;;5063428;28;20080;-76
2023/08/13 10:26:59;;;;;;;5.57;3.85;;;31.40;96.70;;;;;;5064120;28;20048;-76
2023/08/13 10:29:37;;;;;;;5.15;3.60;;;31.50;96.70;;;;;;5063535;28;20049;-76
2023/08/13 10:32:12;;;;;;;2.95;2.35;;;31.70;96.70;;;;;;5062816;28;20079;-76
2023/08/13 10:34:46;;;;;;;2.67;1.92;;;31.70;96.70;;;;;;5061876;28;20044;-76
2023/08/13 10:37:16;;;;;;;2.17;1.80;;;31.90;96.70;;;;;;5064018;28;20307;-76
2023/08/13 10:39:47;;;;;;;2.00;1.80;;;32.10;96.70;;;;;;5066190;28;20046;-76
2023/08/13 10:42:50;;;;;;;3.00;1.98;;;32.30;96.70;;;;;;5063970;28;20112;-76
2023/08/13 10:45:20;;;;;;;3.85;2.00;;;32.40;96.70;;;;;;5062046;28;20051;-75
2023/08/13 10:47:51;;;;;;;5.78;2.22;;;32.40;96.70;;;;;;5063135;28;20052;-76
2023/08/13 10:50:28;;;;;;;2.80;2.45;;;32.60;96.70;;;;;;5060404;28;20052;-76
2023/08/13 10:53:05;;;;;;;2.65;1.90;;;32.70;96.70;;;;;;5063788;28;20113;-76
2023/08/13 10:55:38;;;;;;;2.38;1.73;;;32.80;96.70;;;;;;5063485;28;20044;-76
2023/08/13 10:58:06;;;;;;;5.00;2.65;;;32.70;96.70;;;;;;5063438;28;20048;-76
2023/08/13 11:00:42;;;;;;;3.50;1.85;;;32.80;96.70;;;;;;5061873;28;20041;-76
2023/08/13 11:03:19;;;;;;;3.35;2.28;;;32.80;96.70;;;;;;5062673;28;20669;-76
2023/08/13 11:05:48;;;;;;;4.00;2.10;;;33.10;96.70;;;;;;5058511;28;20047;-76
2023/08/13 11:08:17;;;;;;;2.88;2.20;;;33.30;96.70;;;;;;5063856;28;20045;-76
2023/08/13 11:10:53;;;;;;;2.85;2.10;;;33.30;96.70;;;;;;5062307;28;20623;-76
2023/08/13 11:13:22;;;;;;;3.08;1.75;;;33.40;96.70;;;;;;5061396;28;20052;-76
2023/08/13 11:15:51;;;;;;;3.90;2.10;;;33.50;96.70;;;;;;5063050;28;20478;-76
2023/08/13 11:18:20;;;;;;;2.20;2.00;;;33.50;96.70;;;;;;5044948;28;20502;-76
2023/08/13 11:20:50;;;;;;;4.32;2.13;;;33.40;96.70;;;;;;5060662;28;20090;-75
2023/08/13 11:23:20;;;;;;;3.58;1.77;;;33.40;96.70;;;;;;5061638;28;20052;-76
2023/08/13 11:25:50;;;;;;;3.47;2.10;;;33.50;96.70;;;;;;5061398;28;20040;-76
2023/08/13 11:28:21;;;;;;;3.35;2.15;;;33.50;96.70;;;;;;5052552;28;20052;-76
2023/08/13 11:30:51;;;;;;;3.95;2.38;;;33.60;96.70;;;;;;5063362;28;20075;-76
2023/08/13 11:33:20;;;;;;;3.65;2.13;;;33.80;96.70;;;;;;5060686;28;20520;-76
2023/08/13 11:35:49;;;;;;;3.42;2.60;;;33.90;96.70;;;;;;5063222;28;20049;-76
2023/08/13 11:38:18;;;;;;;3.53;2.65;;;34.10;96.70;;;;;;5045207;28;20076;-76
2023/08/13 11:40:47;;;;;;;3.10;2.33;;;34.20;96.70;;;;;;5062877;28;20045;-76
2023/08/13 11:43:17;;;;;;;2.95;2.20;;;34.20;96.70;;;;;;5062941;28;20109;-76
2023/08/13 11:45:51;;;;;;;2.45;2.13;;;34.30;96.70;;;;;;5061743;28;20395;-77
2023/08/13 11:48:21;;;;;;;3.70;2.53;;;34.30;96.70;;;;;;5062991;28;20036;-76
2023/08/13 11:50:52;;;;;;;2.40;2.20;;;34.40;96.70;;;;;;5060685;28;20056;-76
2023/08/13 11:53:42;;;;;;;5.75;2.10;;;34.60;96.70;;;;;;5062534;28;20119;-76
2023/08/13 11:56:12;;;;;;;3.10;2.10;;;34.70;96.70;;;;;;5062692;28;20040;-76
2023/08/13 11:58:40;;;;;;;2.40;2.20;;;34.80;96.70;;;;;;5060705;28;20049;-76
2023/08/13 12:01:12;;;;;;;3.00;2.20;;;34.90;96.70;;;;;;5062563;28;20044;-75
2023/08/13 12:03:43;;;;;;;3.03;2.53;;;35.00;96.70;;;;;;5062397;28;20498;-76
2023/08/13 12:06:12;;;;;;;3.03;2.30;;;34.80;96.70;;;;;;5062525;28;20049;-76
2023/08/13 12:08:45;;;;;;;5.32;2.10;;;35.00;96.70;;;;;;5061448;28;20414;-76
2023/08/13 12:11:13;;;;;;;1.98;1.83;;;35.20;96.70;;;;;;5062779;28;20045;-76
2023/08/13 12:13:42;;;;;;;3.05;2.03;;;35.10;96.70;;;;;;5052432;28;20041;-76
2023/08/13 12:16:12;;;;;;;2.65;2.10;;;34.90;96.70;;;;;;5061378;28;20099;-76
2023/08/13 12:18:40;;;;;;;2.25;2.05;;;35.20;96.70;;;;;;5062609;28;20439;-76
2023/08/13 12:21:08;;;;;;;5.43;2.30;;;35.30;96.70;;;;;;5060885;28;20045;-76
2023/08/13 12:23:37;;;;;;;2.03;1.88;;;35.40;96.70;;;;;;5044440;28;20126;-77
2023/08/13 12:26:05;;;;;;;2.85;1.98;;;35.50;96.70;;;;;;5062484;28;20094;-76
2023/08/13 12:28:33;;;;;;;3.38;1.83;;;35.70;96.70;;;;;;5061968;28;20048;-76
2023/08/13 12:31:02;;;;;;;6.05;2.13;;;35.60;96.70;;;;;;5061575;28;20040;-76
2023/08/13 12:33:32;;;;;;;2.67;1.80;;;35.80;96.70;;;;;;5061963;28;20533;-76
2023/08/13 12:36:01;;;;;;;4.55;2.30;;;35.90;96.70;;;;;;5063294;28;20051;-76
2023/08/13 12:38:31;;;;;;;3.28;2.28;;;35.80;96.70;;;;;;5062080;28;20036;-76
2023/08/13 12:41:00;;;;;;;3.17;2.15;;;35.70;96.70;;;;;;5062489;28;20792;-76
2023/08/13 12:43:29;;;;;;;2.38;1.98;;;35.70;96.70;;;;;;5063434;28;20705;-76
2023/08/13 12:45:57;;;;;;;5.03;2.13;;;35.90;96.70;;;;;;5064040;28;20048;-76
2023/08/13 12:48:25;;;;;;;3.30;2.15;;;36.10;96.70;;;;;;5044574;28;20098;-76
2023/08/13 12:50:55;;;;;;;3.08;1.58;;;36.50;96.70;;;;;;5065509;28;20051;-76
2023/08/13 12:53:24;;;;;;;2.95;2.00;;;36.50;96.70;;;;;;5064399;28;20055;-76
2023/08/13 12:55:54;;;;;;;2.72;2.08;;;36.70;96.70;;;;;;5065498;28;20115;-76
2023/08/13 12:58:22;;;;;;;3.45;2.00;;;36.50;96.70;;;;;;5061732;28;20040;-76
2023/08/13 13:00:51;;;;;;;4.43;2.00;;;36.30;96.70;;;;;;5065231;28;20077;-76
2023/08/13 13:03:19;;;;;;;1.90;1.80;;;36.50;96.70;;;;;;5064180;28;20450;-76